首页
METAR-TAF:

METAR-TAF

机场 :

皮阿尔科国际机场

西班牙港, 特立尼达岛, 千里達及托巴哥

纬度: 10-37N, 经度: 061-21W, 海拔: 12米

当前天气观测

该预报发布于30分钟前的04:00 UTC
风速6节,风向
温度 25°C
湿度 79%
气压 1013 hPa
能见度10公里或以上
少量云层高于1600英尺
附近有阵雨

METAR: TTPP 260400Z 09006KT 9999 VCSH FEW016 25/21 Q1013 NOSIG RMK VCSH-E

时间: 00:30 (04:30 UTC)

预报

该预报发布于6小时和30分钟前的22:00 UTC
预报有效从26日的 00点(UTC)到 26日的 24点(UTC)
风速8节,风向东转东南
能见度10公里或以上
少量云层高于1600英尺
短暂存在
从 26日的 03点(UTC)到 26日的 11点(UTC)
风速10节,风向东转东南,有时为25节阵风
能見度: 5000
散云层高于1600英尺
阵雨
成为
从 26日的 12点(UTC)到 26日的 14点(UTC)
风速15节,风向东转东南
散云层高于1800英尺
短暂存在
从 26日的 14点(UTC)到 26日的 18点(UTC)
风速15节,风向东转东南,有时为30节阵风
能見度: 5000
多云层高于1600英尺
散云层高于3800英尺
阵雨

TAF: TTPP 252200Z 2600/2624 11008KT 9999 FEW016 TEMPO 2603/2611 11010G25KT 5000 SHRA SCT016 BECMG 2612/2614 11015KT SCT018 TEMPO 2614/2618 11015G30KT 5000 SHRA BKN016 SCT038

超过4000个机场的气象观测和天气预报(METAR&TAF报告)。

可查询的气象台以黄色和红色小点在地图上表示。

将鼠标移到小点上方,可查看气象台名称。

然后点击查看天气观测和预报。

如需切换地图:点击带黑十字的绿色按钮放大地图;点击带横线的绿色按钮缩小地图;或者点击绿色箭头查看邻近地区的地图。


METAR-TAF: